Elbe, Washington
Current Conditions -  °F | °C
As of 12:38 AM on Thursday 18 Dec 2014 (Local Time) from KGRF Reporting Station
Drizzle Drizzle  
Wind Chill: 40°   Ceiling: 1500
Heat Index: 43°   Visibility: 5mi
Dew Point: 43°   Wind: 5mph
Humidity: 100%   Direction: 130°SE
Pressure: 29.93"   Gusts: NA
Location:  46.76°N, 122.2°W
Report Text: KGRF 180838Z AUTO 13004KT 5SM DZ BR SCT009 OVC015 06/06 A2993 RMK AO2 CIG 009V015
Loading
Personal Weather Stations






























Interactive Weather Map New forecast layout! Learn more

10-Day Weather Forecast

Advertisements
Track Severe Weather on mobile